Time;durP1;ratioP1;P1;durP2;ratioP2;P2;SDS_P1;SDS_P2;PMS_P1;PMS_P2;Temp;Humidity;BMP_temperature;BMP_pressure;BME280_temperature;BME280_humidity;BME280_pressure;Samples;Min_cycle;Max_cycle;Signal;HPM_P1;HPM_P2
2023/09/25 00:00:32;;;;;;;;;;;;;;;15.11;52.29;101124.78;4965046;28;7042;-83
2023/09/25 00:02:59;;;;;;;;;;;;;;;15.06;52.25;101132.34;4945948;28;7159;-78
2023/09/25 00:05:28;;;;;;;;;;;;;;;15.01;52.41;101131.31;4942095;28;6865;-80
2023/09/25 00:07:54;;;;;;;;;;;;;;;14.94;52.69;101126.69;4953530;28;6807;-86
2023/09/25 00:10:20;;;;;;;;;;;;;;;14.86;52.88;101122.09;4962935;28;7454;-83
2023/09/25 00:12:46;;;;;;;;;;;;;;;14.81;52.55;101123.59;4955225;28;7114;-83
2023/09/25 00:15:12;;;;;;;;;;;;;;;14.78;52.50;101131.22;4966303;28;8197;-85
2023/09/25 00:17:37;;;;;;;;;;;;;;;14.75;52.94;101136.25;4955930;28;6780;-84
2023/09/25 00:20:04;;;;;;;;;;;;;;;14.70;52.81;101124.81;4964513;28;6980;-81
2023/09/25 00:22:30;;;;;;;;;;;;;;;14.64;52.81;101128.03;4972396;28;7099;-78
2023/09/25 00:24:59;;;;;;;;;;;;;;;14.61;52.97;101129.59;4959097;28;6942;-76
2023/09/25 00:27:25;;;;;;;;;;;;;;;14.55;52.53;101136.22;4955746;28;7420;-81
2023/09/25 00:29:50;;;;;;;;;;;;;;;14.53;53.05;101142.13;4956207;28;6803;-84
2023/09/25 00:32:16;;;;;;;;;;;;;;;14.49;53.59;101138.56;4951940;28;7066;-85
2023/09/25 00:34:42;;;;;;;;;;;;;;;14.47;53.09;101132.44;4938488;28;6975;-86
2023/09/25 00:37:07;;;;;;;;;;;;;;;14.45;53.10;101144.38;4957983;28;7075;-82
2023/09/25 00:39:33;;;;;;;;;;;;;;;14.41;53.16;101137.34;4941261;28;7043;-86
2023/09/25 00:41:59;;;;;;;;;;;;;;;14.38;53.45;101142.34;4963839;28;7261;-81
2023/09/25 00:44:25;;;;;;;;;;;;;;;14.34;53.32;101143.03;4972370;28;7131;-85
2023/09/25 00:46:51;;;;;;;;;;;;;;;14.30;53.27;101145.47;4942016;28;7121;-83
2023/09/25 00:49:17;;;;;;;;;;;;;;;14.28;53.77;101147.09;4967127;28;6805;-83
2023/09/25 00:51:44;;;;;;;;;;;;;;;14.25;53.22;101144.38;4971238;28;6800;-85
2023/09/25 00:54:11;;;;;;;;;;;;;;;14.23;53.54;101145.13;4973344;28;6947;-85
2023/09/25 00:56:37;;;;;;;;;;;;;;;14.20;54.15;101143.31;4955831;28;8457;-83
2023/09/25 00:59:03;;;;;;;;;;;;;;;14.19;54.25;101136.34;4939689;28;7305;-84
2023/09/25 01:01:29;;;;;;;;;;;;;;;14.20;54.25;101145.00;4953388;28;6872;-82
2023/09/25 01:03:54;;;;;;;;;;;;;;;14.19;54.57;101151.81;4960453;28;7336;-85
2023/09/25 01:06:20;;;;;;;;;;;;;;;14.16;53.90;101144.88;4971058;28;6788;-80
2023/09/25 01:08:46;;;;;;;;;;;;;;;14.15;53.99;101149.94;4973486;28;6808;-81
2023/09/25 01:11:11;;;;;;;;;;;;;;;14.13;53.51;101146.41;4962155;28;7090;-79
2023/09/25 01:13:37;;;;;;;;;;;;;;;14.12;54.15;101147.22;4970746;28;6991;-79
2023/09/25 01:16:03;;;;;;;;;;;;;;;14.11;54.75;101153.19;4961174;28;7208;-81
2023/09/25 01:18:28;;;;;;;;;;;;;;;14.08;54.07;101153.03;4954979;28;7250;-79
2023/09/25 01:20:54;;;;;;;;;;;;;;;14.04;54.30;101157.16;4970519;28;6784;-83
2023/09/25 01:23:19;;;;;;;;;;;;;;;13.99;54.22;101162.13;4956560;28;6788;-82
2023/09/25 01:25:45;;;;;;;;;;;;;;;13.94;54.96;101160.13;4957177;28;6788;-82
2023/09/25 01:28:10;;;;;;;;;;;;;;;13.91;54.34;101167.75;4961198;28;6954;-84
2023/09/25 01:30:36;;;;;;;;;;;;;;;13.84;54.63;101148.53;4969363;28;6867;-80
2023/09/25 01:33:01;;;;;;;;;;;;;;;13.79;54.69;101152.56;4972932;28;6792;-72
2023/09/25 01:35:27;;;;;;;;;;;;;;;13.73;54.78;101153.19;4971164;28;6933;-72
2023/09/25 01:37:58;;;;;;;;;;;;;;;13.66;54.06;101151.13;4967247;28;6829;-72
2023/09/25 01:40:24;;;;;;;;;;;;;;;13.61;54.46;101154.38;4963135;28;7216;-71
2023/09/25 01:42:50;;;;;;;;;;;;;;;13.58;54.71;101158.47;4956129;28;7316;-73
2023/09/25 01:45:18;;;;;;;;;;;;;;;13.55;54.57;101150.63;4955531;28;6816;-73
2023/09/25 01:47:51;;;;;;;;;;;;;;;13.54;55.81;101154.00;4961871;28;7220;-71
2023/09/25 01:50:27;;;;;;;;;;;;;;;13.52;54.87;101150.44;4956216;28;6959;-73
2023/09/25 01:52:56;;;;;;;;;;;;;;;13.50;56.16;101157.22;4955250;28;6884;-72
2023/09/25 01:55:22;;;;;;;;;;;;;;;13.49;55.50;101158.03;4960209;28;7282;-72
2023/09/25 01:57:47;;;;;;;;;;;;;;;13.51;56.29;101161.56;4967988;28;7268;-71
2023/09/25 02:00:13;;;;;;;;;;;;;;;13.51;55.46;101161.56;4966927;28;6957;-72
2023/09/25 02:02:42;;;;;;;;;;;;;;;13.54;56.28;101154.88;4954831;28;11491;-72
2023/09/25 02:05:08;;;;;;;;;;;;;;;13.55;56.35;101153.19;4937295;28;7134;-72
2023/09/25 02:07:33;;;;;;;;;;;;;;;13.55;55.80;101158.34;4968063;28;6827;-72
2023/09/25 02:09:59;;;;;;;;;;;;;;;13.58;55.73;101148.19;4968628;28;6799;-72
2023/09/25 02:12:25;;;;;;;;;;;;;;;13.56;55.36;101152.38;4969886;28;7178;-73
2023/09/25 02:14:54;;;;;;;;;;;;;;;13.56;56.60;101144.66;4970293;28;7206;-71
2023/09/25 02:17:20;;;;;;;;;;;;;;;13.56;56.80;101145.53;4968619;28;8089;-71
2023/09/25 02:19:46;;;;;;;;;;;;;;;13.58;56.09;101143.03;4962599;28;7024;-72
2023/09/25 02:22:12;;;;;;;;;;;;;;;13.60;56.59;101152.59;4962488;28;6804;-72
2023/09/25 02:24:39;;;;;;;;;;;;;;;13.63;56.37;101144.16;4950428;28;6963;-72
2023/09/25 02:27:04;;;;;;;;;;;;;;;13.67;56.26;101147.75;4954113;28;7069;-72
2023/09/25 02:29:30;;;;;;;;;;;;;;;13.71;56.46;101139.34;4945649;28;7202;-71
2023/09/25 02:31:56;;;;;;;;;;;;;;;13.78;56.22;101143.09;4967493;28;6808;-72
2023/09/25 02:34:21;;;;;;;;;;;;;;;13.82;56.22;101142.44;4950344;28;7010;-72
2023/09/25 02:36:47;;;;;;;;;;;;;;;13.90;56.68;101159.09;4957154;28;7377;-72
2023/09/25 02:39:15;;;;;;;;;;;;;;;13.97;56.58;101156.00;4965591;28;6800;-71
2023/09/25 02:41:41;;;;;;;;;;;;;;;14.02;55.95;101143.34;4954638;28;6815;-71
2023/09/25 02:44:06;;;;;;;;;;;;;;;14.07;55.63;101153.84;4969885;28;7256;-85
2023/09/25 02:46:32;;;;;;;;;;;;;;;14.08;55.69;101145.31;4956303;28;6976;-84
2023/09/25 02:48:57;;;;;;;;;;;;;;;14.08;55.67;101133.31;4953743;28;7233;-80
2023/09/25 02:51:23;;;;;;;;;;;;;;;14.08;55.85;101140.16;4954627;28;7018;-84
2023/09/25 02:53:48;;;;;;;;;;;;;;;14.08;55.68;101140.16;4952827;28;6784;-86
2023/09/25 02:56:14;;;;;;;;;;;;;;;14.07;55.97;101135.81;4970396;28;6788;-82
2023/09/25 02:58:39;;;;;;;;;;;;;;;14.08;55.56;101138.47;4952981;28;6856;-85
2023/09/25 03:01:05;;;;;;;;;;;;;;;14.09;55.68;101142.81;4971221;28;6792;-83
2023/09/25 03:03:30;;;;;;;;;;;;;;;14.11;55.15;101150.63;4955603;28;7239;-87
2023/09/25 03:05:56;;;;;;;;;;;;;;;14.11;55.34;101146.34;4954601;28;6959;-85
2023/09/25 03:08:21;;;;;;;;;;;;;;;14.11;55.37;101155.78;4959287;28;7091;-84
2023/09/25 03:10:47;;;;;;;;;;;;;;;14.12;56.35;101149.81;4953933;28;6804;-82
2023/09/25 03:13:12;;;;;;;;;;;;;;;14.13;56.35;101159.31;4957658;28;7051;-84
2023/09/25 03:15:38;;;;;;;;;;;;;;;14.12;56.34;101149.81;4969802;28;7039;-79
2023/09/25 03:18:04;;;;;;;;;;;;;;;14.12;55.28;101157.53;4964544;28;6883;-80
2023/09/25 03:20:30;;;;;;;;;;;;;;;14.11;55.69;101166.09;4955719;28;7153;-85
2023/09/25 03:22:56;;;;;;;;;;;;;;;14.11;55.99;101160.94;4969254;28;7268;-76
2023/09/25 03:25:21;;;;;;;;;;;;;;;14.11;56.08;101151.50;4951990;28;6951;-86
2023/09/25 03:27:48;;;;;;;;;;;;;;;14.13;55.65;101154.16;4951806;28;7123;-81
2023/09/25 03:30:15;;;;;;;;;;;;;;;14.13;56.10;101149.84;4960082;28;7229;-80
2023/09/25 03:32:41;;;;;;;;;;;;;;;14.15;55.95;101150.84;4961216;28;6852;-84
2023/09/25 03:35:07;;;;;;;;;;;;;;;14.16;56.38;101156.84;4952126;28;7582;-85
2023/09/25 03:37:32;;;;;;;;;;;;;;;14.16;55.74;101154.28;4954049;28;6796;-77
2023/09/25 03:39:58;;;;;;;;;;;;;;;14.17;55.43;101156.03;4932336;28;7232;-85
2023/09/25 03:42:23;;;;;;;;;;;;;;;14.16;55.58;101156.84;4967666;28;7247;-82
2023/09/25 03:44:50;;;;;;;;;;;;;;;14.15;55.59;101158.56;4950100;28;7263;-79
2023/09/25 03:47:15;;;;;;;;;;;;;;;14.15;55.76;101157.66;4969601;28;7448;-84
2023/09/25 03:49:42;;;;;;;;;;;;;;;14.12;55.99;101155.84;4964745;28;6988;-81
2023/09/25 03:52:08;;;;;;;;;;;;;;;14.12;55.67;101152.38;4952711;28;7134;-82
2023/09/25 03:54:34;;;;;;;;;;;;;;;14.09;56.06;101162.53;4966231;28;7022;-80
2023/09/25 03:56:59;;;;;;;;;;;;;;;14.07;55.63;101159.00;4951077;28;6796;-77
2023/09/25 03:59:25;;;;;;;;;;;;;;;14.06;56.13;101159.81;4940924;28;7269;-84
2023/09/25 04:01:50;;;;;;;;;;;;;;;14.05;56.19;101164.13;4948992;28;7473;-87
2023/09/25 04:04:16;;;;;;;;;;;;;;;14.02;55.46;101156.22;4952640;28;6804;-80
2023/09/25 04:06:41;;;;;;;;;;;;;;;14.02;55.88;101163.97;4940352;28;7002;-84
2023/09/25 04:09:07;;;;;;;;;;;;;;;14.00;56.19;101158.75;4930149;28;6971;-81
2023/09/25 04:11:33;;;;;;;;;;;;;;;13.98;55.36;101162.94;4941105;28;6970;-80
2023/09/25 04:14:00;;;;;;;;;;;;;;;13.97;56.26;101161.16;4954687;28;6844;-85
2023/09/25 04:16:28;;;;;;;;;;;;;;;13.96;55.86;101159.41;4970508;28;6982;-82
2023/09/25 04:18:57;;;;;;;;;;;;;;;13.95;55.66;101156.75;4935407;28;7255;-87
2023/09/25 04:21:22;;;;;;;;;;;;;;;13.91;55.71;101158.31;4937728;28;8662;-88
2023/09/25 04:23:48;;;;;;;;;;;;;;;13.88;55.64;101159.06;4954268;28;7008;-83
2023/09/25 04:26:13;;;;;;;;;;;;;;;13.86;56.18;101159.78;4962689;28;6835;-86
2023/09/25 04:28:42;;;;;;;;;;;;;;;13.85;56.29;101163.19;4961205;28;6961;-73
2023/09/25 04:31:10;;;;;;;;;;;;;;;13.82;56.01;101157.91;4973392;28;6819;-80
2023/09/25 04:33:36;;;;;;;;;;;;;;;13.79;56.92;101156.06;4937421;28;7000;-81
2023/09/25 04:36:02;;;;;;;;;;;;;;;13.78;56.42;101161.13;4957194;28;7193;-79
2023/09/25 04:38:28;;;;;;;;;;;;;;;13.75;55.82;101167.91;4968031;28;6887;-84
2023/09/25 04:40:54;;;;;;;;;;;;;;;13.73;56.54;101159.22;4953721;28;7223;-84
2023/09/25 04:43:21;;;;;;;;;;;;;;;13.68;55.94;101158.09;4953713;28;6919;-83
2023/09/25 04:45:47;;;;;;;;;;;;;;;13.66;56.17;101162.31;4974245;28;6831;-85
2023/09/25 04:48:13;;;;;;;;;;;;;;;13.62;56.09;101155.25;4957467;28;7173;-83
2023/09/25 04:50:40;;;;;;;;;;;;;;;13.60;56.47;101162.00;4958308;28;7292;-85
2023/09/25 04:53:09;;;;;;;;;;;;;;;13.57;56.65;101160.19;4963765;28;7127;-86
2023/09/25 04:55:37;;;;;;;;;;;;;;;13.54;57.25;101162.59;4966018;28;6981;-84
2023/09/25 04:58:03;;;;;;;;;;;;;;;13.53;57.48;101162.56;4956471;28;6895;-85
2023/09/25 05:00:32;;;;;;;;;;;;;;;13.53;56.60;101163.41;4968899;28;7054;-80
2023/09/25 05:02:58;;;;;;;;;;;;;;;13.51;56.78;101164.13;5000882;23;6999;-75
2023/09/25 05:05:24;;;;;;;;;;;;;;;13.52;56.76;101168.47;4955335;28;7000;-75
2023/09/25 05:07:51;;;;;;;;;;;;;;;13.51;56.90;101167.63;4983127;28;7019;-74
2023/09/25 05:10:22;;;;;;;;;;;;;;;13.50;56.38;101170.09;4937706;28;6995;-74
2023/09/25 05:12:47;;;;;;;;;;;;;;;13.53;57.38;101167.69;4967125;28;7246;-74
2023/09/25 05:15:16;;;;;;;;;;;;;;;13.55;56.99;101169.50;4983877;28;6992;-74
2023/09/25 05:17:42;;;;;;;;;;;;;;;13.57;57.35;101172.19;4983359;28;7225;-74
2023/09/25 05:20:15;;;;;;;;;;;;;;;13.57;57.54;101167.03;4966505;28;7068;-74
2023/09/25 05:22:48;;;;;;;;;;;;;;;13.53;56.55;101168.56;4952145;28;7202;-74
2023/09/25 05:25:15;;;;;;;;;;;;;;;13.51;56.23;101171.88;4982847;28;7154;-74
2023/09/25 05:27:50;;;;;;;;;;;;;;;13.48;56.88;101167.47;4944713;28;6974;-74
2023/09/25 05:30:20;;;;;;;;;;;;;;;13.46;56.31;101172.53;4967048;28;7235;-74
2023/09/25 05:32:53;;;;;;;;;;;;;;;13.45;56.71;101170.78;4981859;28;7421;-75
2023/09/25 05:35:19;;;;;;;;;;;;;;;13.45;56.57;101169.88;5000601;28;7244;-74
2023/09/25 05:37:48;;;;;;;;;;;;;;;13.45;57.29;101173.34;4983418;28;7165;-74
2023/09/25 05:40:15;;;;;;;;;;;;;;;13.46;57.18;101174.22;4987752;28;7233;-75
2023/09/25 05:42:45;;;;;;;;;;;;;;;13.50;58.23;101175.25;5055647;23;6859;-75
2023/09/25 05:45:12;;;;;;;;;;;;;;;13.56;58.04;101181.56;4982547;28;7267;-75
2023/09/25 05:47:38;;;;;;;;;;;;;;;13.64;57.22;101181.97;4980586;28;7075;-75
2023/09/25 05:50:06;;;;;;;;;;;;;;;13.73;57.83;101187.56;4994144;28;7223;-75
2023/09/25 05:52:33;;;;;;;;;;;;;;;13.83;58.05;101185.41;4990422;28;7006;-75
2023/09/25 05:54:59;;;;;;;;;;;;;;;13.92;57.67;101177.22;4994818;28;6803;-75
2023/09/25 05:57:25;;;;;;;;;;;;;;;14.00;56.89;101188.78;4992694;28;7418;-75
2023/09/25 05:59:51;;;;;;;;;;;;;;;14.06;56.83;101185.59;4991668;28;6791;-75
2023/09/25 06:02:16;;;;;;;;;;;;;;;14.11;57.53;101191.88;5008240;28;7201;-75
2023/09/25 06:04:42;;;;;;;;;;;;;;;14.19;56.78;101193.06;4990690;28;7745;-74
2023/09/25 06:07:07;;;;;;;;;;;;;;;14.25;56.71;101184.78;4990933;28;6796;-75
2023/09/25 06:09:33;;;;;;;;;;;;;;;14.34;57.19;101190.34;4989105;28;6824;-74
2023/09/25 06:11:59;;;;;;;;;;;;;;;14.41;56.70;101191.50;4972346;28;6958;-75
2023/09/25 06:14:25;;;;;;;;;;;;;;;14.47;56.96;101189.16;4991620;28;7094;-73
2023/09/25 06:16:54;;;;;;;;;;;;;;;14.56;56.82;101191.28;4993088;28;6788;-73
2023/09/25 06:19:20;;;;;;;;;;;;;;;14.62;56.19;101191.53;4976464;28;7321;-73
2023/09/25 06:21:46;;;;;;;;;;;;;;;14.70;56.49;101189.31;4981304;28;6970;-72
2023/09/25 06:24:12;;;;;;;;;;;;;;;14.77;56.89;101181.03;5008397;28;8389;-74
2023/09/25 06:26:41;;;;;;;;;;;;;;;14.85;56.22;101184.84;4991343;28;6977;-73
2023/09/25 06:29:08;;;;;;;;;;;;;;;14.93;56.68;101181.72;4993729;28;7480;-73
2023/09/25 06:31:36;;;;;;;;;;;;;;;15.01;55.81;101180.34;4974648;28;7209;-73
2023/09/25 06:34:02;;;;;;;;;;;;;;;15.08;56.19;101181.47;4992369;28;6969;-73
2023/09/25 06:36:27;;;;;;;;;;;;;;;15.14;56.10;101185.19;4987793;28;7285;-73
2023/09/25 06:38:53;;;;;;;;;;;;;;;15.22;56.01;101193.28;4981353;28;7295;-74
2023/09/25 06:41:19;;;;;;;;;;;;;;;15.31;55.85;101189.31;5004943;28;9748;-73
2023/09/25 06:43:45;;;;;;;;;;;;;;;15.37;56.11;101190.44;5008571;28;6954;-73
2023/09/25 06:46:10;;;;;;;;;;;;;;;15.44;55.35;101182.94;4973123;28;7432;-74
2023/09/25 06:48:36;;;;;;;;;;;;;;;15.52;55.72;101184.13;4975779;28;7246;-74
2023/09/25 06:51:01;;;;;;;;;;;;;;;15.58;55.22;101184.38;4972701;28;7257;-73
2023/09/25 06:53:27;;;;;;;;;;;;;;;15.65;55.09;101183.81;4991067;28;7228;-73
2023/09/25 06:55:52;;;;;;;;;;;;;;;15.72;55.14;101186.63;4993284;28;6950;-73
2023/09/25 06:58:18;;;;;;;;;;;;;;;15.76;54.91;101183.34;4990715;28;6807;-73
2023/09/25 07:00:45;;;;;;;;;;;;;;;15.80;54.98;101191.28;4971756;28;7161;-73
2023/09/25 07:03:10;;;;;;;;;;;;;;;15.85;54.74;101191.47;4990076;28;7216;-74
2023/09/25 07:05:36;;;;;;;;;;;;;;;15.89;54.87;101193.34;4972960;28;7064;-73
2023/09/25 07:08:01;;;;;;;;;;;;;;;15.94;54.74;101204.78;4990154;28;7379;-73
2023/09/25 07:10:27;;;;;;;;;;;;;;;16.01;54.92;101194.66;4992135;28;6847;-74
2023/09/25 07:12:52;;;;;;;;;;;;;;;16.08;54.57;101207.91;4957063;28;7167;-72
2023/09/25 07:15:19;;;;;;;;;;;;;;;16.15;54.21;101206.44;4975587;28;6784;-74
2023/09/25 07:17:46;;;;;;;;;;;;;;;16.24;54.36;101203.28;4974258;28;6867;-74
2023/09/25 07:20:12;;;;;;;;;;;;;;;16.30;54.68;101198.34;4993922;28;6984;-74
2023/09/25 07:22:37;;;;;;;;;;;;;;;16.39;54.13;101192.63;4981655;28;6859;-74
2023/09/25 07:25:03;;;;;;;;;;;;;;;16.47;53.98;101188.63;4981509;28;7041;-86
2023/09/25 07:27:29;;;;;;;;;;;;;;;16.58;53.77;101194.19;4960591;28;6999;-84
2023/09/25 07:29:55;;;;;;;;;;;;;;;16.65;53.83;101201.34;4979331;28;7095;-81
2023/09/25 07:32:20;;;;;;;;;;;;;;;16.73;54.02;101196.44;4993305;28;6788;-77
2023/09/25 07:34:45;;;;;;;;;;;;;;;16.81;53.26;101191.53;4976720;28;7176;-82
2023/09/25 07:37:12;;;;;;;;;;;;;;;16.90;53.21;101191.84;4972847;28;7813;-83
2023/09/25 07:39:40;;;;;;;;;;;;;;;16.98;53.54;101184.34;4991867;28;6952;-80
2023/09/25 07:42:10;;;;;;;;;;;;;;;17.08;53.45;101185.59;4975201;28;6980;-83
2023/09/25 07:44:35;;;;;;;;;;;;;;;17.17;53.46;101187.59;4994848;28;6968;-84
2023/09/25 07:47:06;;;;;;;;;;;;;;;17.27;53.13;101197.41;4975029;28;6776;-79
2023/09/25 07:49:44;;;;;;;;;;;;;;;17.38;53.27;101197.78;5007565;28;7012;-79
2023/09/25 07:52:16;;;;;;;;;;;;;;;17.51;53.43;101199.06;4979839;28;6841;-86
2023/09/25 07:54:45;;;;;;;;;;;;;;;17.63;53.02;101202.03;4963609;28;7275;-83
2023/09/25 07:57:13;;;;;;;;;;;;;;;17.74;53.44;101206.69;4979804;28;7228;-80
2023/09/25 07:59:39;;;;;;;;;;;;;;;17.87;52.92;101207.94;4968886;28;7010;-80
2023/09/25 08:02:04;;;;;;;;;;;;;;;17.98;53.36;101195.31;4973053;28;7366;-81
2023/09/25 08:04:30;;;;;;;;;;;;;;;18.08;52.57;101206.88;4998399;28;6960;-84
2023/09/25 08:06:55;;;;;;;;;;;;;;;18.18;52.72;101212.41;4996902;28;6806;-82
2023/09/25 08:09:22;;;;;;;;;;;;;;;18.27;52.14;101205.72;4994953;28;6796;-84
2023/09/25 08:11:48;;;;;;;;;;;;;;;18.38;52.45;101200.81;4977276;28;6864;-79
2023/09/25 08:14:14;;;;;;;;;;;;;;;18.50;52.24;101190.81;4992441;28;6995;-81
2023/09/25 08:16:39;;;;;;;;;;;;;;;18.62;51.93;101199.75;4963024;28;8804;-81
2023/09/25 08:19:05;;;;;;;;;;;;;;;18.76;51.88;101200.16;4998896;28;6936;-81
2023/09/25 08:21:31;;;;;;;;;;;;;;;18.91;52.28;101200.53;4982561;28;6879;-82
2023/09/25 08:23:56;;;;;;;;;;;;;;;19.06;51.81;101204.41;4994722;28;7051;-78
2023/09/25 08:26:22;;;;;;;;;;;;;;;19.22;51.89;101203.97;4993340;28;6974;-86
2023/09/25 08:28:47;;;;;;;;;;;;;;;19.33;51.45;101201.63;4986615;28;7234;-82
2023/09/25 08:31:13;;;;;;;;;;;;;;;19.45;51.03;101197.56;4994533;28;6961;-79
2023/09/25 08:33:39;;;;;;;;;;;;;;;19.55;50.54;101207.34;4962591;28;8608;-72
2023/09/25 08:36:10;;;;;;;;;;;;;;;19.62;50.51;101206.66;4994492;28;7349;-73
2023/09/25 08:38:36;;;;;;;;;;;;;;;19.67;50.53;101204.16;4982008;28;6976;-74
2023/09/25 08:41:01;;;;;;;;;;;;;;;19.74;50.53;101195.66;4998354;23;7206;-74
2023/09/25 08:43:30;;;;;;;;;;;;;;;19.83;49.84;101194.97;4983189;28;6796;-74
2023/09/25 08:45:56;;;;;;;;;;;;;;;19.88;50.10;101192.47;4966254;28;6987;-75
2023/09/25 08:48:22;;;;;;;;;;;;;;;19.94;49.85;101183.16;4989212;28;7050;-73
2023/09/25 08:50:49;;;;;;;;;;;;;;;20.03;49.72;101192.84;4973785;28;7113;-74
2023/09/25 08:53:15;;;;;;;;;;;;;;;20.11;49.41;101185.22;4986987;28;7018;-74
2023/09/25 08:55:43;;;;;;;;;;;;;;;20.22;49.18;101182.84;4990603;28;6784;-73
2023/09/25 08:58:10;;;;;;;;;;;;;;;20.34;49.37;101183.09;4989506;28;6799;-74
2023/09/25 09:00:36;;;;;;;;;;;;;;;20.45;49.39;101190.22;4985927;28;6800;-74
2023/09/25 09:03:02;;;;;;;;;;;;;;;20.56;49.21;101188.69;4976050;28;7484;-72
2023/09/25 09:05:27;;;;;;;;;;;;;;;20.67;48.92;101183.72;4990636;28;7497;-74
2023/09/25 09:08:00;;;;;;;;;;;;;;;20.78;48.83;101183.91;4983437;28;7192;-74
2023/09/25 09:10:33;;;;;;;;;;;;;;;20.89;48.78;101191.94;4988278;28;7014;-73
2023/09/25 09:12:59;;;;;;;;;;;;;;;20.93;48.09;101183.34;4990778;28;7145;-72
2023/09/25 09:15:26;;;;;;;;;;;;;;;21.02;48.45;101185.22;4974738;28;7234;-73
2023/09/25 09:17:56;;;;;;;;;;;;;;;21.11;48.39;101188.00;4969675;28;7022;-73
2023/09/25 09:20:35;;;;;;;;;;;;;;;21.18;47.46;101184.63;4973058;28;6964;-73
2023/09/25 09:23:01;;;;;;;;;;;;;;;21.27;47.70;101190.88;4991960;28;7237;-73
2023/09/25 09:25:27;;;;;;;;;;;;;;;21.35;47.47;101181.44;4987042;28;7301;-73
2023/09/25 09:27:53;;;;;;;;;;;;;;;21.43;47.29;101171.13;4987073;28;7261;-73
2023/09/25 09:30:23;;;;;;;;;;;;;;;21.50;47.27;101171.22;4975506;28;6999;-73
2023/09/25 09:32:52;;;;;;;;;;;;;;;21.57;46.85;101169.56;4985805;28;7317;-72
2023/09/25 09:35:25;;;;;;;;;;;;;;;21.63;47.35;101171.41;4955427;28;7485;-72
2023/09/25 09:37:57;;;;;;;;;;;;;;;21.70;47.25;101165.44;4987713;28;7129;-73
2023/09/25 09:40:27;;;;;;;;;;;;;;;21.76;46.82;101162.94;4973422;28;7300;-73
2023/09/25 09:42:53;;;;;;;;;;;;;;;21.89;46.57;101174.44;4991599;28;7949;-77
2023/09/25 09:45:22;;;;;;;;;;;;;;;21.99;46.83;101169.31;4974747;28;6967;-72
2023/09/25 09:47:49;;;;;;;;;;;;;;;22.11;46.83;101168.59;4986973;28;6959;-72
2023/09/25 09:50:26;;;;;;;;;;;;;;;22.22;46.72;101161.78;4971331;28;7168;-72
2023/09/25 09:52:52;;;;;;;;;;;;;;;22.34;46.54;101166.25;4991703;28;6979;-74
2023/09/25 09:55:20;;;;;;;;;;;;;;;22.46;46.59;101157.69;4989772;28;7049;-73
2023/09/25 09:57:47;;;;;;;;;;;;;;;22.57;45.97;101155.22;4971211;28;6971;-71
2023/09/25 10:00:13;;;;;;;;;;;;;;;22.66;46.58;101154.44;4988193;28;6796;-74
2023/09/25 10:02:40;;;;;;;;;;;;;;;22.76;46.38;101145.81;4970641;28;12814;-72
2023/09/25 10:05:06;;;;;;;;;;;;;;;22.88;46.61;101143.31;4973575;28;6968;-72
2023/09/25 10:07:31;;;;;;;;;;;;;;;23.03;45.91;101137.38;4972138;28;6846;-74
2023/09/25 10:10:06;;;;;;;;;;;;;;;23.24;45.55;101135.78;4957333;28;6942;-73
2023/09/25 10:12:38;;;;;;;;;;;;;;;23.64;45.92;101122.06;4973372;28;8554;-73
2023/09/25 10:15:20;;;;;;;;;;;;;;;24.64;45.27;101119.81;4971376;28;6804;-72
2023/09/25 10:17:46;;;;;;;;;;;;;;;25.70;43.32;101114.50;4977664;28;6823;-74
2023/09/25 10:20:30;;;;;;;;;;;;;;;26.80;42.26;101105.09;4967323;28;6839;-73
2023/09/25 10:23:22;;;;;;;;;;;;;;;27.92;40.83;101103.97;4973552;28;6976;-74
2023/09/25 10:25:52;;;;;;;;;;;;;;;28.89;38.98;101109.56;4968259;28;6808;-73
2023/09/25 10:28:29;;;;;;;;;;;;;;;29.82;38.02;101106.06;4973592;28;7318;-74
2023/09/25 10:30:59;;;;;;;;;;;;;;;30.60;36.61;101116.63;4971546;28;6992;-73
2023/09/25 10:33:29;;;;;;;;;;;;;;;31.29;35.71;101114.91;4973547;28;7201;-72
2023/09/25 10:36:04;;;;;;;;;;;;;;;31.98;34.30;101104.13;4986325;28;7218;-74
2023/09/25 10:38:32;;;;;;;;;;;;;;;32.61;33.67;101107.47;4973650;28;7051;-74
2023/09/25 10:41:06;;;;;;;;;;;;;;;33.13;32.86;101115.44;4973846;28;7081;-73
2023/09/25 10:43:32;;;;;;;;;;;;;;;33.33;31.93;101116.50;4985852;28;6875;-72
2023/09/25 10:45:58;;;;;;;;;;;;;;;33.39;31.51;101117.16;4965027;28;7179;-73
2023/09/25 10:48:27;;;;;;;;;;;;;;;33.52;30.72;101111.44;4972150;28;7032;-73
2023/09/25 10:50:54;;;;;;;;;;;;;;;33.72;30.16;101108.00;4976038;28;6992;-74
2023/09/25 10:53:21;;;;;;;;;;;;;;;34.05;30.36;101106.78;5025937;23;7290;-82
2023/09/25 10:55:48;;;;;;;;;;;;;;;34.46;29.25;101103.34;4995045;28;9866;-84
2023/09/25 10:58:14;;;;;;;;;;;;;;;34.81;28.85;101109.00;4983596;28;6993;-80
2023/09/25 11:00:41;;;;;;;;;;;;;;;35.07;28.68;101104.38;5050777;23;6874;-82
2023/09/25 11:03:08;;;;;;;;;;;;;;;35.30;28.39;101111.31;4968686;28;6985;-84
2023/09/25 11:05:38;;;;;;;;;;;;;;;35.67;27.47;101107.94;4985400;28;9362;-83
2023/09/25 11:08:15;;;;;;;;;;;;;;;36.11;26.85;101107.63;4979878;28;7162;-79
2023/09/25 11:10:41;;;;;;;;;;;;;;;36.60;27.25;101107.94;4988635;28;6816;-85
2023/09/25 11:13:08;;;;;;;;;;;;;;;37.10;26.62;101106.28;4972459;28;6792;-85
2023/09/25 11:15:37;;;;;;;;;;;;;;;37.56;26.26;101115.44;5003459;28;7029;-84
2023/09/25 11:18:04;;;;;;;;;;;;;;;37.87;24.37;101116.41;4986926;28;7141;-80
2023/09/25 11:20:30;;;;;;;;;;;;;;;37.78;23.27;101121.34;5001329;28;7173;-85
2023/09/25 11:23:14;;;;;;;;;;;;;;;37.72;24.07;101121.66;4989027;28;6949;-84
2023/09/25 11:25:50;;;;;;;;;;;;;;;37.91;24.33;101117.97;4978713;28;6979;-81
2023/09/25 11:28:25;;;;;;;;;;;;;;;38.04;24.03;101119.00;4987362;28;6868;-81
2023/09/25 11:30:50;;;;;;;;;;;;;;;38.10;23.67;101114.25;4980159;28;7798;-84
2023/09/25 11:33:21;;;;;;;;;;;;;;;38.13;23.24;101120.31;4967476;28;7186;-84
2023/09/25 11:35:49;;;;;;;;;;;;;;;38.01;23.29;101118.31;4982596;28;6820;-84
2023/09/25 11:38:18;;;;;;;;;;;;;;;37.82;22.67;101113.13;4972256;28;6993;-84
2023/09/25 11:40:44;;;;;;;;;;;;;;;37.63;22.81;101124.84;4978139;28;6883;-84
2023/09/25 11:43:11;;;;;;;;;;;;;;;37.35;23.28;101116.50;4964368;28;7171;-84
2023/09/25 11:45:37;;;;;;;;;;;;;;;37.03;23.45;101111.03;4976914;28;7915;-79
2023/09/25 11:48:03;;;;;;;;;;;;;;;36.75;24.08;101109.84;4959765;28;6966;-85
2023/09/25 11:50:29;;;;;;;;;;;;;;;36.58;23.31;101105.34;4987910;28;6854;-82
2023/09/25 11:52:54;;;;;;;;;;;;;;;36.48;23.43;101110.28;5011755;23;7114;-82
2023/09/25 11:55:20;;;;;;;;;;;;;;;36.20;22.88;101108.09;4991144;28;6792;-77
2023/09/25 11:57:46;;;;;;;;;;;;;;;35.72;23.11;101105.91;5016022;23;6942;-79
2023/09/25 12:00:15;;;;;;;;;;;;;;;35.38;23.86;101107.44;4972437;28;6792;-76
2023/09/25 12:02:46;;;;;;;;;;;;;;;35.36;23.66;101114.66;4977417;28;11916;-80
2023/09/25 12:05:16;;;;;;;;;;;;;;;35.37;23.71;101116.38;4967505;28;6990;-76
2023/09/25 12:07:42;;;;;;;;;;;;;;;35.29;23.23;101114.91;4954942;28;6989;-73
2023/09/25 12:10:12;;;;;;;;;;;;;;;35.30;23.94;101111.31;4961209;28;6816;-74
2023/09/25 12:12:41;;;;;;;;;;;;;;;35.36;24.33;101104.00;4961373;28;6861;-74
2023/09/25 12:15:07;;;;;;;;;;;;;;;35.28;23.97;101102.53;4963986;28;7569;-73
2023/09/25 12:17:34;;;;;;;;;;;;;;;35.25;24.89;101107.13;5006457;23;7066;-72
2023/09/25 12:20:06;;;;;;;;;;;;;;;34.85;24.36;101109.72;4966565;28;7407;-73
2023/09/25 12:22:33;;;;;;;;;;;;;;;34.11;25.12;101103.88;5000261;28;8027;-72
2023/09/25 12:24:58;;;;;;;;;;;;;;;33.28;26.13;101110.53;4985015;28;6796;-75
2023/09/25 12:27:24;;;;;;;;;;;;;;;32.49;26.95;101108.72;4987942;28;7184;-72
2023/09/25 12:29:49;;;;;;;;;;;;;;;31.89;27.81;101115.00;5050885;23;6792;-71
2023/09/25 12:32:15;;;;;;;;;;;;;;;31.38;29.03;101130.53;4999337;28;7042;-75
2023/09/25 12:34:41;;;;;;;;;;;;;;;30.91;29.16;101120.31;4990019;28;6856;-72
2023/09/25 12:37:07;;;;;;;;;;;;;;;30.48;29.37;101119.56;4973845;28;7056;-73
2023/09/25 12:39:34;;;;;;;;;;;;;;;30.07;30.07;101117.88;5008932;28;7186;-74
2023/09/25 12:41:59;;;;;;;;;;;;;;;29.71;30.28;101123.00;4993626;28;6981;-75
2023/09/25 12:44:25;;;;;;;;;;;;;;;29.37;30.20;101127.16;5007136;28;7099;-72